EGMD/LYX METAR and TAF weather

Enter ICAO airport designator
Station Type Date Time Source
EGMD METAR 2022/11/30 23:50 UTC NOAA

EGMD 302350Z AUTO 34007KT 8000 FEW026/// BKN032/// 07/07 Q1028


Station Type Date Time Source
EGMD Decoded METAR 2022/11/30 23:50 UTC NOAA

Lydd Airport , United Kingdom (EGMD) 50-57N 000-56E
Nov 30, 2022 - 06:50 PM EST / 2022.11.30 2350 UTC
Wind: from the NNW (340 degrees) at 8 MPH (7 KT):0
Visibility: 4 mile(s):0
Sky conditions: mostly cloudy
Temperature: 44 F (7 C)
Dew Point: 44 F (7 C)
Relative Humidity: 100%
Pressure (altimeter): 30.36 in. Hg (1028 hPa)
ob: EGMD 302350Z AUTO 34007KT 8000 FEW026/// BKN032/// 07/07 Q1028
cycle: 0

Station Type Date Time Source
EGMD TAF UTC NOAA

Error!

Example: see airport list